createdAt,value
2018-09-17T00:00:45.321Z,18.6
2018-09-17T00:10:44.556Z,18.6
2018-09-17T00:20:43.786Z,18.4
2018-09-17T00:30:43.025Z,18.3
2018-09-17T00:40:42.256Z,18.3
2018-09-17T00:50:41.486Z,18.3
2018-09-17T01:00:40.721Z,18.3
2018-09-17T01:10:39.959Z,18.3
2018-09-17T01:20:39.195Z,18
2018-09-17T01:30:38.495Z,17.8
2018-09-17T01:40:37.662Z,17.6
2018-09-17T01:50:36.887Z,17.8
2018-09-17T02:00:36.122Z,17.9
2018-09-17T02:10:35.403Z,17.9
2018-09-17T02:20:34.596Z,17.8
2018-09-17T02:30:33.822Z,17.8
2018-09-17T02:40:33.054Z,17.6
2018-09-17T02:50:32.290Z,17.5
2018-09-17T03:00:31.524Z,17.4
2018-09-17T03:10:30.751Z,17.3
2018-09-17T03:20:29.984Z,17.2
2018-09-17T03:30:29.223Z,17.2
2018-09-17T03:40:28.453Z,17.2
2018-09-17T03:50:27.682Z,17.1
2018-09-17T04:00:26.916Z,17.1
2018-09-17T04:10:26.149Z,17.1
2018-09-17T04:20:25.381Z,17.1
2018-09-17T04:30:24.614Z,17.1
2018-09-17T04:40:23.847Z,17.3
2018-09-17T04:50:23.078Z,17.4
2018-09-17T05:00:22.314Z,17.8
2018-09-17T05:10:21.546Z,18.6
2018-09-17T05:20:20.782Z,18.9
2018-09-17T05:30:20.014Z,19.3
2018-09-17T05:40:19.297Z,19.7
2018-09-17T05:50:18.479Z,20.1
2018-09-17T06:00:17.712Z,21.3
2018-09-17T06:10:16.947Z,22.4
2018-09-17T06:20:16.178Z,23.6
2018-09-17T06:30:15.410Z,24.4
2018-09-17T06:40:14.644Z,25.4
2018-09-17T06:50:13.878Z,26.9
2018-09-17T07:00:13.109Z,27.4
2018-09-17T07:10:12.349Z,26.9
2018-09-17T07:20:11.574Z,26.7
2018-09-17T07:30:10.809Z,27.2
2018-09-17T07:40:10.041Z,29.4
2018-09-17T07:50:09.324Z,29.3
2018-09-17T08:00:08.509Z,29.1
2018-09-17T08:10:07.740Z,28.9
2018-09-17T08:20:06.976Z,28.2
2018-09-17T08:30:06.209Z,27.4
2018-09-17T08:40:05.445Z,27.1
2018-09-17T08:50:04.676Z,27.3
2018-09-17T09:00:03.907Z,27.1
2018-09-17T09:10:03.145Z,26.3
2018-09-17T09:20:02.381Z,26.1
2018-09-17T09:30:01.611Z,26.9
2018-09-17T09:40:00.840Z,26.8
2018-09-17T09:50:00.077Z,26.1
2018-09-17T09:59:59.310Z,25.8
2018-09-17T10:09:58.541Z,25.9
2018-09-17T10:19:57.782Z,25.8
2018-09-17T10:29:57.055Z,25.4
2018-09-17T10:39:56.245Z,25.9
2018-09-17T10:49:55.479Z,26.3
2018-09-17T10:59:54.711Z,25.9
2018-09-17T11:09:53.945Z,25.9
2018-09-17T11:19:53.179Z,26
2018-09-17T11:29:52.411Z,26.5
2018-09-17T11:39:51.645Z,26.8
2018-09-17T11:49:50.879Z,27.1
2018-09-17T11:59:50.118Z,27.1
2018-09-17T12:09:49.352Z,27.1
2018-09-17T12:19:48.582Z,26.8
2018-09-17T12:29:47.820Z,26.6
2018-09-17T12:39:47.052Z,26.5
2018-09-17T12:49:46.289Z,26.1
2018-09-17T12:59:45.517Z,25.8
2018-09-17T13:09:44.754Z,25.5
2018-09-17T13:19:43.987Z,25.3
2018-09-17T13:29:43.225Z,25.1
2018-09-17T13:39:42.458Z,25
2018-09-17T13:49:41.699Z,24.8
2018-09-17T13:59:40.952Z,24.8
2018-09-17T14:09:40.212Z,24.6
2018-09-17T14:19:39.388Z,24.4
2018-09-17T14:29:38.643Z,24.3
2018-09-17T14:39:37.858Z,24.2
2018-09-17T14:49:37.103Z,24.2
2018-09-17T14:59:36.334Z,24.1
2018-09-17T15:09:35.571Z,24.1
2018-09-17T15:19:34.811Z,24.1
2018-09-17T15:29:34.031Z,23.9
2018-09-17T15:39:33.266Z,23.9
2018-09-17T15:49:32.512Z,23.8
2018-09-17T15:59:31.740Z,23.8
2018-09-17T16:09:30.970Z,23.7
2018-09-17T16:19:30.205Z,23.4
2018-09-17T16:29:29.443Z,23.1
2018-09-17T16:39:28.674Z,22.6
2018-09-17T16:49:27.907Z,22.4
2018-09-17T16:59:27.141Z,22.1
2018-09-17T17:09:26.373Z,21.8
2018-09-17T17:19:25.628Z,21.6
2018-09-17T17:29:24.842Z,21.4
2018-09-17T17:39:24.116Z,21.3
2018-09-17T17:49:23.306Z,21
2018-09-17T17:59:22.542Z,20.8
2018-09-17T18:09:21.826Z,20.8
2018-09-17T18:19:21.008Z,20.7
2018-09-17T18:29:20.244Z,20.7
2018-09-17T18:39:19.534Z,20.8
2018-09-17T18:49:18.717Z,20.6
2018-09-17T18:59:17.953Z,20.4
2018-09-17T19:09:17.244Z,20.3
2018-09-17T19:19:16.429Z,20.3
2018-09-17T19:29:15.663Z,20.2
2018-09-17T19:39:14.890Z,20.4
2018-09-17T19:49:14.124Z,20.4
2018-09-17T19:59:13.359Z,20.4
2018-09-17T20:09:12.592Z,20.4
2018-09-17T20:19:11.824Z,20.3
2018-09-17T20:29:11.060Z,20.3
2018-09-17T20:39:10.294Z,20.3
2018-09-17T20:49:09.617Z,20.1
2018-09-17T20:59:08.758Z,20.1
2018-09-17T21:09:08.007Z,20
2018-09-17T21:19:07.263Z,19.9
2018-09-17T21:29:06.457Z,19.9
2018-09-17T21:39:05.691Z,19.9
2018-09-17T21:49:04.923Z,19.7
2018-09-17T21:59:04.156Z,19.6
2018-09-17T22:09:03.390Z,19.6
2018-09-17T22:19:02.620Z,19.5
2018-09-17T22:29:01.950Z,19.5
2018-09-17T22:39:01.089Z,19.5
2018-09-17T22:49:00.318Z,19.3
2018-09-17T22:58:59.550Z,19.3
2018-09-17T23:08:58.785Z,19.2
2018-09-17T23:18:58.015Z,19.1
2018-09-17T23:28:57.252Z,19.1
2018-09-17T23:38:56.481Z,19.1
2018-09-17T23:48:55.712Z,19.3
2018-09-17T23:58:54.941Z,19.3
